createdAt,value
2023-02-23T00:02:28.386Z,73.15
2023-02-23T00:08:23.588Z,67.43
2023-02-23T00:11:12.368Z,70.30
2023-02-23T00:13:58.864Z,71.38
2023-02-23T00:16:45.550Z,67.85
2023-02-23T00:19:33.335Z,69.28
2023-02-23T00:22:01.216Z,73.18
2023-02-23T00:24:47.919Z,72.35
2023-02-23T00:27:34.834Z,66.78
2023-02-23T00:30:20.806Z,67.47
2023-02-23T00:33:07.643Z,67.43
2023-02-23T00:35:34.920Z,59.30
2023-02-23T00:38:06.545Z,66.85
2023-02-23T00:40:52.268Z,68.50
2023-02-23T00:43:47.805Z,67.43
2023-02-23T00:46:33.493Z,66.93
2023-02-23T00:49:20.927Z,61.53
2023-02-23T00:52:06.462Z,62.75
2023-02-23T00:54:54.062Z,67.25
2023-02-23T00:57:40.181Z,62.88
2023-02-23T01:00:25.810Z,66.22
2023-02-23T01:03:11.445Z,61.08
2023-02-23T01:06:05.066Z,62.35
2023-02-23T01:08:56.775Z,60.97
2023-02-23T01:11:42.522Z,58.50
2023-02-23T01:14:31.325Z,59.65
2023-02-23T01:17:18.024Z,64.25
2023-02-23T01:20:19.553Z,63.15
2023-02-23T01:23:07.428Z,70.97
2023-02-23T01:25:53.171Z,63.28
2023-02-23T01:28:39.078Z,64.78
2023-02-23T01:31:26.649Z,64.85
2023-02-23T01:34:14.521Z,62.35
2023-02-23T01:36:43.949Z,70.95
2023-02-23T01:39:17.285Z,70.30
2023-02-23T01:42:06.588Z,66.20
2023-02-23T01:44:52.283Z,65.10
2023-02-23T01:47:39.765Z,64.22
2023-02-23T01:50:28.086Z,60.65
2023-02-23T01:53:14.573Z,68.72
2023-02-23T01:56:11.564Z,69.03
2023-02-23T01:59:03.286Z,70.65
2023-02-23T02:01:48.903Z,68.00
2023-02-23T02:04:44.797Z,78.18
2023-02-23T02:07:35.181Z,73.80
2023-02-23T02:10:39.825Z,70.47
2023-02-23T02:13:32.484Z,71.80
2023-02-23T02:16:23.179Z,68.72
2023-02-23T02:19:50.322Z,76.28
2023-02-23T02:22:29.614Z,80.28
2023-02-23T02:25:38.375Z,84.97
2023-02-23T02:28:30.371Z,85.47
2023-02-23T02:31:51.267Z,86.57
2023-02-23T02:34:51.053Z,86.60
2023-02-23T02:37:33.350Z,96.45
2023-02-23T02:40:25.905Z,90.13
2023-02-23T02:43:21.186Z,94.25
2023-02-23T02:46:29.229Z,96.15
2023-02-23T02:49:31.349Z,106.32
2023-02-23T02:52:25.583Z,100.70
2023-02-23T02:55:23.766Z,106.10
2023-02-23T02:58:07.997Z,107.53
2023-02-23T03:01:12.620Z,98.00
2023-02-23T03:04:23.316Z,107.20
2023-02-23T03:07:28.509Z,103.78
2023-02-23T03:11:02.050Z,104.40
2023-02-23T03:14:27.518Z,104.18
2023-02-23T03:17:44.366Z,110.55
2023-02-23T03:20:51.427Z,118.85
2023-02-23T03:24:10.499Z,125.55
2023-02-23T03:27:23.385Z,121.90
2023-02-23T03:30:45.289Z,119.22
2023-02-23T03:34:03.131Z,139.18
2023-02-23T03:37:13.490Z,139.20
2023-02-23T03:40:44.296Z,139.23
2023-02-23T03:44:05.229Z,143.45
2023-02-23T03:47:12.229Z,138.00
2023-02-23T03:50:19.631Z,153.15
2023-02-23T03:53:12.870Z,161.50
2023-02-23T03:56:18.352Z,146.70
2023-02-23T03:59:26.701Z,135.05
2023-02-23T04:02:33.353Z,138.82
2023-02-23T04:05:41.283Z,157.85
2023-02-23T04:08:31.782Z,169.50
2023-02-23T04:11:52.382Z,144.18
2023-02-23T04:15:02.888Z,139.82
2023-02-23T04:17:35.383Z,137.63
2023-02-23T04:20:22.602Z,130.75
2023-02-23T04:22:49.845Z,136.50
2023-02-23T04:25:35.537Z,131.20
2023-02-23T04:28:03.764Z,126.88
2023-02-23T04:30:50.051Z,122.68
2023-02-23T04:33:37.623Z,132.13
2023-02-23T04:36:27.085Z,150.90
2023-02-23T04:39:12.730Z,170.93
2023-02-23T04:41:58.418Z,162.48
2023-02-23T04:44:45.255Z,133.00
2023-02-23T04:47:31.359Z,175.18
2023-02-23T04:50:19.512Z,158.90
2023-02-23T04:53:05.710Z,159.68
2023-02-23T04:55:51.792Z,184.32
2023-02-23T04:58:37.490Z,157.35
2023-02-23T05:01:24.319Z,136.80
2023-02-23T05:04:10.279Z,185.07
2023-02-23T05:06:57.774Z,182.68
2023-02-23T05:09:25.160Z,167.15
2023-02-23T05:12:12.528Z,170.60
2023-02-23T05:14:58.527Z,156.32
2023-02-23T05:17:44.514Z,151.77
2023-02-23T05:20:30.099Z,191.65
2023-02-23T05:23:17.586Z,188.55
2023-02-23T05:26:09.877Z,161.93
2023-02-23T05:28:57.003Z,162.45
2023-02-23T05:31:42.744Z,157.40
2023-02-23T05:34:28.622Z,188.18
2023-02-23T05:37:14.330Z,172.10
2023-02-23T05:40:02.062Z,183.13
2023-02-23T05:42:47.876Z,209.25
2023-02-23T05:45:28.064Z,177.25
2023-02-23T05:48:14.084Z,161.30
2023-02-23T05:51:07.003Z,173.02
2023-02-23T05:53:34.672Z,186.85
2023-02-23T05:56:21.360Z,188.15
2023-02-23T05:59:08.924Z,168.63
2023-02-23T06:01:54.791Z,232.45
2023-02-23T06:04:40.588Z,197.73
2023-02-23T06:07:26.240Z,223.18
2023-02-23T06:10:14.491Z,263.55
2023-02-23T06:13:00.487Z,254.13
2023-02-23T06:15:30.015Z,187.63
2023-02-23T06:17:57.895Z,172.00
2023-02-23T06:20:25.025Z,143.95
2023-02-23T06:22:52.419Z,158.82
2023-02-23T06:25:19.999Z,159.82
2023-02-23T06:27:51.019Z,224.23
2023-02-23T06:30:18.993Z,235.52
2023-02-23T06:32:46.545Z,197.25
2023-02-23T06:35:13.942Z,243.38
2023-02-23T06:37:41.389Z,158.75
2023-02-23T06:40:27.541Z,282.15
2023-02-23T06:43:15.255Z,211.15
2023-02-23T06:45:42.522Z,223.98
2023-02-23T06:48:33.271Z,219.02
2023-02-23T06:51:06.242Z,160.80
2023-02-23T06:53:53.448Z,213.70
2023-02-23T06:56:39.388Z,212.90
2023-02-23T06:59:26.697Z,206.50
2023-02-23T07:02:15.864Z,312.60
2023-02-23T07:05:02.039Z,173.48
2023-02-23T07:07:48.265Z,356.52
2023-02-23T07:10:35.559Z,226.25
2023-02-23T07:13:22.076Z,196.98
2023-02-23T07:16:10.045Z,263.38
2023-02-23T07:18:56.630Z,298.42
2023-02-23T07:21:42.210Z,195.30
2023-02-23T07:24:09.508Z,190.55
2023-02-23T07:26:37.189Z,288.23
2023-02-23T07:29:25.362Z,347.08
2023-02-23T07:31:54.912Z,221.27
2023-02-23T07:34:33.550Z,266.75
2023-02-23T07:37:19.498Z,273.23
2023-02-23T07:40:05.845Z,251.60
2023-02-23T07:42:52.139Z,316.85
2023-02-23T07:45:38.405Z,280.55
2023-02-23T07:48:26.067Z,257.33
2023-02-23T07:51:15.465Z,207.57
2023-02-23T07:54:04.828Z,344.95
2023-02-23T07:56:50.874Z,263.08
2023-02-23T07:59:37.098Z,258.73
2023-02-23T08:02:22.994Z,176.40
2023-02-23T08:05:10.965Z,205.30
2023-02-23T08:07:58.148Z,258.40
2023-02-23T08:10:45.421Z,200.65
2023-02-23T08:13:34.124Z,225.15
2023-02-23T08:16:21.672Z,216.75
2023-02-23T08:19:07.466Z,184.05
2023-02-23T08:21:45.373Z,254.75
2023-02-23T08:24:33.104Z,188.07
2023-02-23T08:27:20.903Z,183.75
2023-02-23T08:30:10.100Z,167.20
2023-02-23T08:32:57.592Z,154.38
2023-02-23T08:35:44.186Z,184.15
2023-02-23T08:38:31.256Z,199.75
2023-02-23T08:41:17.631Z,180.00
2023-02-23T08:44:03.410Z,181.32
2023-02-23T08:46:49.448Z,192.00
2023-02-23T08:49:19.398Z,148.93
2023-02-23T08:51:49.164Z,184.00
2023-02-23T08:54:35.064Z,166.85
2023-02-23T08:57:20.903Z,128.93
2023-02-23T09:00:11.917Z,119.85
2023-02-23T09:02:57.521Z,137.85
2023-02-23T09:05:44.295Z,125.78
2023-02-23T09:08:29.915Z,128.48
2023-02-23T09:11:15.681Z,108.40
2023-02-23T09:14:01.723Z,134.95
2023-02-23T09:16:49.337Z,116.45
2023-02-23T09:19:35.089Z,118.40
2023-02-23T09:22:22.578Z,121.00
2023-02-23T09:25:10.480Z,108.07
2023-02-23T09:27:57.169Z,129.77
2023-02-23T09:30:44.551Z,108.72
2023-02-23T09:33:32.304Z,101.43
2023-02-23T09:36:21.651Z,108.93
2023-02-23T09:39:09.233Z,106.28
2023-02-23T09:42:08.435Z,117.80
2023-02-23T09:45:14.391Z,116.88
2023-02-23T09:48:09.517Z,99.32
2023-02-23T09:50:42.681Z,94.05
2023-02-23T09:53:51.168Z,85.43
2023-02-23T09:56:49.854Z,80.82
2023-02-23T09:59:36.396Z,83.85
2023-02-23T10:02:54.172Z,77.60
2023-02-23T10:05:31.828Z,75.22
2023-02-23T10:08:50.902Z,76.03
2023-02-23T10:11:58.961Z,84.75
2023-02-23T10:15:06.563Z,69.68
2023-02-23T10:18:24.620Z,85.68
2023-02-23T10:21:22.646Z,76.22
2023-02-23T10:24:19.349Z,73.88
2023-02-23T10:27:14.202Z,74.57
2023-02-23T10:29:51.605Z,65.32
2023-02-23T10:32:54.463Z,66.35
2023-02-23T10:35:42.006Z,62.10
2023-02-23T10:38:27.959Z,74.40
2023-02-23T10:41:15.544Z,65.38
2023-02-23T10:44:15.372Z,65.00
2023-02-23T10:47:13.677Z,56.47
2023-02-23T10:49:49.032Z,49.30
2023-02-23T10:52:45.926Z,46.95
2023-02-23T10:55:32.553Z,46.75
2023-02-23T10:58:20.006Z,50.13
2023-02-23T11:01:06.407Z,54.28
2023-02-23T11:04:05.407Z,49.92
2023-02-23T11:06:39.543Z,52.13
2023-02-23T11:09:43.884Z,53.08
2023-02-23T11:12:41.950Z,49.28
2023-02-23T11:15:49.469Z,48.97
2023-02-23T11:18:37.290Z,49.72
2023-02-23T11:21:33.495Z,48.97
2023-02-23T11:24:22.730Z,43.40
2023-02-23T11:27:23.342Z,41.78
2023-02-23T11:30:12.506Z,40.35
2023-02-23T11:33:11.032Z,39.15
2023-02-23T11:36:12.532Z,37.13
2023-02-23T11:39:20.031Z,33.15
2023-02-23T11:42:25.466Z,32.03
2023-02-23T11:45:08.343Z,30.48
2023-02-23T11:47:59.463Z,32.55
2023-02-23T11:50:49.153Z,32.45
2023-02-23T11:53:45.241Z,30.17
2023-02-23T11:56:35.256Z,30.40
2023-02-23T11:59:40.177Z,33.53
2023-02-23T12:02:23.086Z,33.22
2023-02-23T12:05:18.301Z,38.28
2023-02-23T12:08:16.707Z,32.60
2023-02-23T12:11:06.864Z,33.20
2023-02-23T12:14:00.924Z,32.50
2023-02-23T12:16:46.697Z,34.13
2023-02-23T12:19:40.872Z,30.35
2023-02-23T12:22:33.913Z,30.83
2023-02-23T12:25:41.181Z,29.90
2023-02-23T12:28:41.926Z,31.98
2023-02-23T12:31:54.424Z,35.95
2023-02-23T12:34:47.295Z,32.55
2023-02-23T12:37:39.880Z,34.42
2023-02-23T12:40:30.219Z,39.22
2023-02-23T12:43:32.557Z,34.28
2023-02-23T12:46:31.482Z,24.52
2023-02-23T12:49:36.428Z,25.92
2023-02-23T12:52:36.743Z,20.40
2023-02-23T12:55:27.683Z,19.27
2023-02-23T12:58:32.349Z,14.65
2023-02-23T13:01:29.393Z,13.48
2023-02-23T13:04:24.288Z,10.90
2023-02-23T13:07:42.572Z,10.60
2023-02-23T13:10:49.696Z,10.73
2023-02-23T13:14:09.115Z,10.93
2023-02-23T13:17:07.266Z,14.60
2023-02-23T13:19:58.738Z,14.63
2023-02-23T13:22:58.826Z,12.70
2023-02-23T13:26:14.329Z,12.55
2023-02-23T13:28:59.809Z,12.98
2023-02-23T13:31:46.425Z,13.43
2023-02-23T13:34:51.168Z,14.77
2023-02-23T13:37:50.220Z,15.50
2023-02-23T13:41:06.631Z,12.55
2023-02-23T13:44:20.141Z,16.60
2023-02-23T13:47:17.228Z,13.13
2023-02-23T13:50:40.003Z,12.45
2023-02-23T13:53:39.859Z,14.93
2023-02-23T13:56:31.601Z,13.73
2023-02-23T13:59:29.690Z,18.17
2023-02-23T14:02:35.695Z,13.40
2023-02-23T14:05:26.036Z,14.82
2023-02-23T14:08:38.685Z,17.13
2023-02-23T14:11:49.639Z,17.67
2023-02-23T14:14:35.948Z,18.13
2023-02-23T14:17:27.778Z,18.23
2023-02-23T14:20:29.505Z,17.95
2023-02-23T14:23:20.106Z,16.75
2023-02-23T14:26:31.989Z,18.58
2023-02-23T14:29:21.873Z,19.35
2023-02-23T14:32:16.513Z,18.67
2023-02-23T14:35:04.724Z,22.85
2023-02-23T14:38:24.950Z,22.55
2023-02-23T14:41:12.590Z,16.23
2023-02-23T14:44:29.679Z,19.45
2023-02-23T14:47:19.972Z,17.17
2023-02-23T14:50:16.082Z,20.88
2023-02-23T14:53:02.590Z,19.77
2023-02-23T14:55:32.587Z,21.67
2023-02-23T14:58:38.477Z,21.77
2023-02-23T15:01:38.949Z,22.50
2023-02-23T15:04:29.929Z,22.77
2023-02-23T15:07:25.265Z,21.10
2023-02-23T15:10:20.216Z,18.60
2023-02-23T15:12:48.370Z,17.52
2023-02-23T15:15:36.283Z,18.70
2023-02-23T15:19:18.547Z,19.50
2023-02-23T15:22:05.512Z,17.90
2023-02-23T15:24:51.183Z,17.65
2023-02-23T15:27:45.414Z,17.38
2023-02-23T15:30:32.873Z,18.95
2023-02-23T15:33:12.965Z,19.70
2023-02-23T15:36:30.097Z,17.35
2023-02-23T15:39:21.723Z,18.92
2023-02-23T15:42:13.600Z,21.02
2023-02-23T15:45:02.748Z,17.27
2023-02-23T15:47:44.954Z,18.00
2023-02-23T15:50:40.020Z,20.13
2023-02-23T15:53:29.161Z,19.00
2023-02-23T15:56:26.892Z,18.60
2023-02-23T15:58:58.316Z,19.65
2023-02-23T16:01:31.026Z,19.52
2023-02-23T16:04:21.800Z,20.90
2023-02-23T16:07:35.434Z,18.52
2023-02-23T16:10:22.912Z,22.30
2023-02-23T16:13:12.936Z,18.23
2023-02-23T16:15:41.211Z,15.65
2023-02-23T16:18:41.172Z,20.27
2023-02-23T16:21:30.823Z,18.10
2023-02-23T16:24:22.556Z,19.98
2023-02-23T16:27:10.722Z,19.15
2023-02-23T16:30:04.673Z,19.92
2023-02-23T16:33:12.103Z,15.88
2023-02-23T16:36:16.016Z,19.63
2023-02-23T16:39:06.380Z,22.92
2023-02-23T16:41:48.660Z,17.48
2023-02-23T16:44:43.417Z,20.73
2023-02-23T16:47:48.390Z,21.10
2023-02-23T16:50:27.512Z,19.85
2023-02-23T16:52:57.590Z,16.02
2023-02-23T16:55:50.041Z,18.65
2023-02-23T16:58:36.225Z,19.30
2023-02-23T17:01:03.825Z,18.40
2023-02-23T17:03:54.163Z,21.75
2023-02-23T17:06:41.553Z,19.67
2023-02-23T17:09:29.549Z,23.25
2023-02-23T17:12:21.937Z,23.15
2023-02-23T17:15:17.854Z,34.25
2023-02-23T17:18:04.728Z,26.85
2023-02-23T17:20:47.568Z,27.77
2023-02-23T17:23:42.506Z,25.50
2023-02-23T17:26:17.170Z,33.15
2023-02-23T17:29:03.021Z,29.35
2023-02-23T17:31:36.264Z,29.45
2023-02-23T17:34:23.391Z,27.75
2023-02-23T17:37:11.770Z,27.45
2023-02-23T17:40:01.262Z,29.20
2023-02-23T17:42:48.710Z,28.52
2023-02-23T17:45:34.810Z,27.15
2023-02-23T17:48:13.100Z,26.60
2023-02-23T17:50:41.072Z,28.27
2023-02-23T17:53:08.320Z,25.77
2023-02-23T17:55:35.568Z,33.13
2023-02-23T17:58:21.626Z,32.78
2023-02-23T18:00:49.483Z,36.40
2023-02-23T18:03:37.517Z,37.92
2023-02-23T18:06:23.229Z,39.67
2023-02-23T18:09:14.460Z,36.17
2023-02-23T18:12:04.377Z,39.20
2023-02-23T18:14:51.907Z,36.92
2023-02-23T18:17:38.053Z,39.33
2023-02-23T18:20:23.821Z,43.03
2023-02-23T18:23:09.736Z,38.08
2023-02-23T18:25:37.332Z,42.03
2023-02-23T18:28:23.340Z,40.85
2023-02-23T18:31:20.037Z,38.80
2023-02-23T18:34:06.578Z,40.35
2023-02-23T18:36:52.510Z,41.35
2023-02-23T18:39:31.045Z,42.47
2023-02-23T18:42:18.362Z,42.22
2023-02-23T18:45:04.445Z,44.10
2023-02-23T18:47:52.135Z,37.83
2023-02-23T18:50:38.022Z,39.17
2023-02-23T18:53:25.811Z,38.38
2023-02-23T18:55:53.112Z,39.95
2023-02-23T18:58:42.034Z,33.63
2023-02-23T19:01:37.423Z,35.67
2023-02-23T19:04:24.858Z,36.25
2023-02-23T19:07:10.950Z,34.30
2023-02-23T19:10:02.119Z,34.15
2023-02-23T19:12:48.104Z,32.83
2023-02-23T19:15:31.955Z,35.17
2023-02-23T19:18:17.815Z,32.25
2023-02-23T19:21:07.422Z,32.42
2023-02-23T19:23:34.704Z,32.63
2023-02-23T19:26:22.936Z,32.58
2023-02-23T19:28:50.401Z,33.55
2023-02-23T19:31:39.013Z,31.15
2023-02-23T19:34:24.834Z,29.80
2023-02-23T19:37:10.557Z,27.38
2023-02-23T19:39:56.358Z,29.25
2023-02-23T19:42:46.006Z,30.95
2023-02-23T19:45:32.190Z,28.50
2023-02-23T19:48:20.375Z,26.60
2023-02-23T19:50:49.434Z,22.75
2023-02-23T19:53:35.841Z,24.63
2023-02-23T19:56:24.701Z,23.80
2023-02-23T19:58:52.640Z,24.98
2023-02-23T20:01:38.287Z,26.27
2023-02-23T20:04:27.192Z,27.70
2023-02-23T20:07:13.221Z,27.65
2023-02-23T20:09:40.586Z,27.58
2023-02-23T20:12:28.792Z,32.40
2023-02-23T20:15:16.500Z,29.80
2023-02-23T20:18:02.546Z,29.92
2023-02-23T20:20:53.941Z,30.23
2023-02-23T20:23:27.316Z,33.55
2023-02-23T20:26:16.026Z,33.63
2023-02-23T20:28:43.671Z,33.95
2023-02-23T20:31:35.193Z,33.45
2023-02-23T20:34:24.593Z,35.95
2023-02-23T20:37:12.553Z,33.88
2023-02-23T20:39:58.346Z,38.65
2023-02-23T20:42:47.906Z,35.78
2023-02-23T20:45:17.675Z,37.67
2023-02-23T20:47:46.168Z,34.10
2023-02-23T20:50:34.061Z,33.33
2023-02-23T20:53:22.507Z,37.00
2023-02-23T20:56:10.001Z,33.97
2023-02-23T20:58:58.181Z,35.58
2023-02-23T21:01:45.518Z,36.83
2023-02-23T21:04:19.274Z,36.88
2023-02-23T21:07:05.562Z,42.40
2023-02-23T21:09:59.192Z,38.00
2023-02-23T21:12:44.766Z,41.35
2023-02-23T21:15:32.857Z,44.67
2023-02-23T21:18:18.989Z,43.72
2023-02-23T21:20:46.413Z,46.25
2023-02-23T21:23:14.042Z,44.75
2023-02-23T21:25:41.472Z,48.20
2023-02-23T21:28:12.159Z,53.25
2023-02-23T21:30:58.197Z,49.72
2023-02-23T21:33:42.389Z,54.37
2023-02-23T21:36:30.405Z,49.65
2023-02-23T21:39:16.447Z,51.92
2023-02-23T21:42:02.213Z,55.40
2023-02-23T21:44:44.450Z,55.03
2023-02-23T21:47:35.238Z,54.72
2023-02-23T21:50:21.168Z,50.63
2023-02-23T21:53:10.573Z,56.40
2023-02-23T21:55:41.271Z,48.45
2023-02-23T21:58:28.893Z,55.05
2023-02-23T22:01:20.558Z,49.20
2023-02-23T22:04:12.949Z,51.60
2023-02-23T22:06:58.980Z,48.00
2023-02-23T22:09:44.709Z,46.40
2023-02-23T22:12:32.594Z,54.05
2023-02-23T22:15:18.662Z,44.30
2023-02-23T22:18:04.428Z,49.95
2023-02-23T22:20:59.201Z,43.38
2023-02-23T22:23:47.891Z,40.25
2023-02-23T22:26:39.299Z,43.67
2023-02-23T22:29:26.402Z,40.03
2023-02-23T22:32:14.657Z,33.00
2023-02-23T22:35:01.317Z,32.38
2023-02-23T22:37:48.884Z,40.00
2023-02-23T22:40:35.271Z,34.17
2023-02-23T22:43:22.843Z,37.33
2023-02-23T22:45:57.498Z,38.03
2023-02-23T22:48:45.142Z,36.75
2023-02-23T22:51:14.639Z,35.05
2023-02-23T22:54:02.227Z,38.33
2023-02-23T22:56:49.071Z,37.17
2023-02-23T22:59:34.766Z,40.65
2023-02-23T23:02:21.912Z,32.03
2023-02-23T23:05:09.766Z,38.28
2023-02-23T23:07:55.439Z,36.70
2023-02-23T23:10:28.593Z,37.13
2023-02-23T23:13:17.683Z,36.90
2023-02-23T23:16:16.834Z,39.80
2023-02-23T23:18:55.894Z,37.83
2023-02-23T23:21:45.516Z,38.33
2023-02-23T23:24:13.685Z,41.42
2023-02-23T23:27:01.270Z,39.90
2023-02-23T23:29:48.901Z,43.60
2023-02-23T23:32:18.429Z,35.97
2023-02-23T23:35:07.040Z,37.20
2023-02-23T23:37:34.418Z,42.72
2023-02-23T23:40:24.427Z,34.85
2023-02-23T23:42:52.658Z,34.13
2023-02-23T23:45:40.458Z,37.20
2023-02-23T23:48:26.208Z,32.20
2023-02-23T23:51:12.073Z,35.40
2023-02-23T23:54:02.108Z,40.25
2023-02-23T23:56:49.580Z,37.80
2023-02-23T23:59:35.945Z,38.72
